sensor_id;sensor_type;location;lat;lon;timestamp;pressure;altitude;pressure_sealevel;temperature;humidity
45793;BME280;31495;42.740;22.908;2023-02-07T00:00:49;94333.94;;;-6.12;70.79
45793;BME280;31495;42.740;22.908;2023-02-07T00:01:48;94325.50;;;-6.11;70.17
45793;BME280;31495;42.740;22.908;2023-02-07T00:02:48;94345.34;;;-6.05;70.65
45793;BME280;31495;42.740;22.908;2023-02-07T00:03:48;94352.97;;;-6.06;70.19
45793;BME280;31495;42.740;22.908;2023-02-07T00:04:48;94308.38;;;-6.38;70.30
45793;BME280;31495;42.740;22.908;2023-02-07T00:05:47;94317.34;;;-6.32;70.50
45793;BME280;31495;42.740;22.908;2023-02-07T00:06:47;94334.09;;;-6.31;70.97
45793;BME280;31495;42.740;22.908;2023-02-07T00:07:46;94319.69;;;-6.62;70.73
45793;BME280;31495;42.740;22.908;2023-02-07T00:08:46;94360.94;;;-6.48;71.03
45793;BME280;31495;42.740;22.908;2023-02-07T00:09:46;94336.06;;;-6.54;71.04
45793;BME280;31495;42.740;22.908;2023-02-07T00:10:45;94352.59;;;-6.32;71.74
45793;BME280;31495;42.740;22.908;2023-02-07T00:11:45;94347.31;;;-6.28;72.09
45793;BME280;31495;42.740;22.908;2023-02-07T00:12:44;94326.94;;;-6.23;72.20
45793;BME280;31495;42.740;22.908;2023-02-07T00:13:45;94360.72;;;-5.95;70.96
45793;BME280;31495;42.740;22.908;2023-02-07T00:14:45;94354.50;;;-6.04;70.51
45793;BME280;31495;42.740;22.908;2023-02-07T00:15:44;94345.97;;;-6.17;70.69
45793;BME280;31495;42.740;22.908;2023-02-07T00:16:44;94345.38;;;-6.22;70.73
45793;BME280;31495;42.740;22.908;2023-02-07T00:17:43;94353.13;;;-6.10;70.57
45793;BME280;31495;42.740;22.908;2023-02-07T00:18:43;94336.44;;;-6.12;70.82
45793;BME280;31495;42.740;22.908;2023-02-07T00:19:43;94364.97;;;-5.80;70.06
45793;BME280;31495;42.740;22.908;2023-02-07T00:20:42;94345.78;;;-5.82;69.66
45793;BME280;31495;42.740;22.908;2023-02-07T00:21:42;94370.19;;;-5.67;70.07
45793;BME280;31495;42.740;22.908;2023-02-07T00:22:45;94371.34;;;-5.88;69.24
45793;BME280;31495;42.740;22.908;2023-02-07T00:23:45;94361.97;;;-6.02;69.71
45793;BME280;31495;42.740;22.908;2023-02-07T00:24:44;94339.94;;;-6.31;69.76
45793;BME280;31495;42.740;22.908;2023-02-07T00:25:44;94369.00;;;-6.25;69.90
45793;BME280;31495;42.740;22.908;2023-02-07T00:26:44;94361.47;;;-6.25;69.81
45793;BME280;31495;42.740;22.908;2023-02-07T00:27:45;94341.78;;;-6.34;69.63
45793;BME280;31495;42.740;22.908;2023-02-07T00:28:44;94367.19;;;-6.21;70.48
45793;BME280;31495;42.740;22.908;2023-02-07T00:29:44;94368.06;;;-6.22;70.05
45793;BME280;31495;42.740;22.908;2023-02-07T00:30:44;94367.81;;;-6.18;71.08
45793;BME280;31495;42.740;22.908;2023-02-07T00:31:43;94363.75;;;-6.20;70.81
45793;BME280;31495;42.740;22.908;2023-02-07T00:32:43;94332.09;;;-6.42;70.07
45793;BME280;31495;42.740;22.908;2023-02-07T00:33:44;94355.38;;;-6.21;69.93
45793;BME280;31495;42.740;22.908;2023-02-07T00:34:46;94359.63;;;-6.21;69.83
45793;BME280;31495;42.740;22.908;2023-02-07T00:35:46;94313.94;;;-6.65;69.61
45793;BME280;31495;42.740;22.908;2023-02-07T00:36:45;94364.47;;;-6.34;70.39
45793;BME280;31495;42.740;22.908;2023-02-07T00:37:45;94379.09;;;-6.25;70.21
45793;BME280;31495;42.740;22.908;2023-02-07T00:38:45;94375.75;;;-6.25;69.77
45793;BME280;31495;42.740;22.908;2023-02-07T00:39:45;94372.69;;;-6.48;70.03
45793;BME280;31495;42.740;22.908;2023-02-07T00:40:44;94361.63;;;-6.61;70.24
45793;BME280;31495;42.740;22.908;2023-02-07T00:41:44;94378.94;;;-6.55;70.25
45793;BME280;31495;42.740;22.908;2023-02-07T00:42:43;94365.91;;;-6.63;70.33
45793;BME280;31495;42.740;22.908;2023-02-07T00:43:44;94378.56;;;-6.65;70.94
45793;BME280;31495;42.740;22.908;2023-02-07T00:44:44;94371.81;;;-6.65;70.95
45793;BME280;31495;42.740;22.908;2023-02-07T00:45:43;94372.75;;;-6.66;70.63
45793;BME280;31495;42.740;22.908;2023-02-07T00:46:43;94343.84;;;-6.76;71.00
45793;BME280;31495;42.740;22.908;2023-02-07T00:47:42;94370.88;;;-6.62;70.51
45793;BME280;31495;42.740;22.908;2023-02-07T00:48:41;94362.50;;;-6.62;70.49
45793;BME280;31495;42.740;22.908;2023-02-07T00:49:41;94355.63;;;-6.76;70.53
45793;BME280;31495;42.740;22.908;2023-02-07T00:50:41;94360.38;;;-6.70;70.52
45793;BME280;31495;42.740;22.908;2023-02-07T00:51:41;94361.97;;;-6.52;70.79
45793;BME280;31495;42.740;22.908;2023-02-07T00:52:40;94368.72;;;-6.52;70.15
45793;BME280;31495;42.740;22.908;2023-02-07T00:53:40;94370.31;;;-6.51;70.74
45793;BME280;31495;42.740;22.908;2023-02-07T00:54:40;94377.94;;;-6.53;70.74
45793;BME280;31495;42.740;22.908;2023-02-07T00:55:39;94370.31;;;-6.51;70.50
45793;BME280;31495;42.740;22.908;2023-02-07T00:56:39;94363.69;;;-6.52;70.19
45793;BME280;31495;42.740;22.908;2023-02-07T00:57:38;94369.38;;;-6.49;70.14
45793;BME280;31495;42.740;22.908;2023-02-07T00:58:38;94373.13;;;-6.40;70.10
45793;BME280;31495;42.740;22.908;2023-02-07T00:59:37;94361.91;;;-6.68;70.32
45793;BME280;31495;42.740;22.908;2023-02-07T01:00:36;94358.72;;;-6.54;70.41
45793;BME280;31495;42.740;22.908;2023-02-07T01:01:36;94371.50;;;-6.41;70.65
45793;BME280;31495;42.740;22.908;2023-02-07T01:02:35;94367.06;;;-6.36;70.15
45793;BME280;31495;42.740;22.908;2023-02-07T01:03:35;94370.97;;;-6.30;69.32
45793;BME280;31495;42.740;22.908;2023-02-07T01:04:34;94375.75;;;-6.59;69.95
45793;BME280;31495;42.740;22.908;2023-02-07T01:05:34;94373.09;;;-6.56;70.47
45793;BME280;31495;42.740;22.908;2023-02-07T01:06:33;94356.94;;;-6.52;70.36
45793;BME280;31495;42.740;22.908;2023-02-07T01:07:35;94353.13;;;-6.43;70.40
45793;BME280;31495;42.740;22.908;2023-02-07T01:08:34;94361.53;;;-6.26;69.79
45793;BME280;31495;42.740;22.908;2023-02-07T01:09:34;94363.09;;;-6.24;69.82
45793;BME280;31495;42.740;22.908;2023-02-07T01:10:33;94345.41;;;-6.40;69.83
45793;BME280;31495;42.740;22.908;2023-02-07T01:11:33;94357.94;;;-6.38;69.57
45793;BME280;31495;42.740;22.908;2023-02-07T01:12:33;94339.28;;;-6.34;69.56
45793;BME280;31495;42.740;22.908;2023-02-07T01:13:33;94353.03;;;-6.24;69.17
45793;BME280;31495;42.740;22.908;2023-02-07T01:14:33;94353.59;;;-6.19;69.31
45793;BME280;31495;42.740;22.908;2023-02-07T01:15:39;94353.84;;;-6.07;69.98
45793;BME280;31495;42.740;22.908;2023-02-07T01:16:38;94344.66;;;-5.93;70.00
45793;BME280;31495;42.740;22.908;2023-02-07T01:17:38;94345.53;;;-5.94;69.28
45793;BME280;31495;42.740;22.908;2023-02-07T01:18:37;94349.94;;;-5.81;69.41
45793;BME280;31495;42.740;22.908;2023-02-07T01:19:37;94333.09;;;-5.81;68.68
45793;BME280;31495;42.740;22.908;2023-02-07T01:20:36;94323.38;;;-5.87;68.43
45793;BME280;31495;42.740;22.908;2023-02-07T01:21:36;94348.06;;;-5.62;68.55
45793;BME280;31495;42.740;22.908;2023-02-07T01:22:37;94349.50;;;-5.58;68.93
45793;BME280;31495;42.740;22.908;2023-02-07T01:23:37;94293.59;;;-5.80;68.35
45793;BME280;31495;42.740;22.908;2023-02-07T01:24:36;94303.66;;;-5.64;68.03
45793;BME280;31495;42.740;22.908;2023-02-07T01:25:37;94338.91;;;-5.32;67.71
45793;BME280;31495;42.740;22.908;2023-02-07T01:26:37;94337.38;;;-5.35;67.80
45793;BME280;31495;42.740;22.908;2023-02-07T01:27:37;94323.94;;;-5.36;67.02
45793;BME280;31495;42.740;22.908;2023-02-07T01:28:37;94345.25;;;-5.25;66.90
45793;BME280;31495;42.740;22.908;2023-02-07T01:29:36;94340.19;;;-5.25;67.14
45793;BME280;31495;42.740;22.908;2023-02-07T01:30:41;94337.50;;;-5.22;66.44
45793;BME280;31495;42.740;22.908;2023-02-07T01:31:41;94321.81;;;-5.27;66.51
45793;BME280;31495;42.740;22.908;2023-02-07T01:32:41;94336.09;;;-5.12;65.54
45793;BME280;31495;42.740;22.908;2023-02-07T01:33:40;94327.81;;;-5.14;65.77
45793;BME280;31495;42.740;22.908;2023-02-07T01:34:40;94308.97;;;-5.39;64.45
45793;BME280;31495;42.740;22.908;2023-02-07T01:35:39;94338.09;;;-5.33;64.69
45793;BME280;31495;42.740;22.908;2023-02-07T01:36:38;94345.06;;;-5.22;65.47
45793;BME280;31495;42.740;22.908;2023-02-07T01:37:38;94315.47;;;-5.35;65.94
45793;BME280;31495;42.740;22.908;2023-02-07T01:38:38;94319.22;;;-5.26;66.15
45793;BME280;31495;42.740;22.908;2023-02-07T01:39:38;94342.13;;;-5.14;66.60
45793;BME280;31495;42.740;22.908;2023-02-07T01:40:37;94306.75;;;-5.29;66.36
45793;BME280;31495;42.740;22.908;2023-02-07T01:41:38;94327.00;;;-5.14;66.33
45793;BME280;31495;42.740;22.908;2023-02-07T01:42:37;94298.59;;;-5.18;65.60
45793;BME280;31495;42.740;22.908;2023-02-07T01:45:05;94311.22;;;-5.18;66.52
45793;BME280;31495;42.740;22.908;2023-02-07T01:46:04;94316.81;;;-5.13;66.48
45793;BME280;31495;42.740;22.908;2023-02-07T01:47:04;94332.06;;;-5.00;66.22
45793;BME280;31495;42.740;22.908;2023-02-07T01:48:08;94336.13;;;-4.97;65.99
45793;BME280;31495;42.740;22.908;2023-02-07T01:49:11;94323.38;;;-5.10;65.94
45793;BME280;31495;42.740;22.908;2023-02-07T01:50:12;94304.00;;;-5.24;66.12
45793;BME280;31495;42.740;22.908;2023-02-07T01:51:12;94314.13;;;-5.10;66.13
45793;BME280;31495;42.740;22.908;2023-02-07T01:52:23;94332.19;;;-5.02;65.95
45793;BME280;31495;42.740;22.908;2023-02-07T01:53:23;94340.13;;;-4.93;65.91
45793;BME280;31495;42.740;22.908;2023-02-07T01:54:24;94331.78;;;-5.10;66.24
45793;BME280;31495;42.740;22.908;2023-02-07T01:55:33;94345.47;;;-5.14;66.22
45793;BME280;31495;42.740;22.908;2023-02-07T01:56:34;94344.44;;;-5.26;65.28
45793;BME280;31495;42.740;22.908;2023-02-07T01:57:36;94347.38;;;-5.33;65.33
45793;BME280;31495;42.740;22.908;2023-02-07T01:58:36;94336.00;;;-5.41;65.65
45793;BME280;31495;42.740;22.908;2023-02-07T01:59:37;94329.63;;;-5.78;65.47
45793;BME280;31495;42.740;22.908;2023-02-07T02:00:43;94345.78;;;-5.66;66.56
45793;BME280;31495;42.740;22.908;2023-02-07T02:01:44;94328.63;;;-5.76;67.34
45793;BME280;31495;42.740;22.908;2023-02-07T02:02:44;94354.41;;;-5.55;67.26
45793;BME280;31495;42.740;22.908;2023-02-07T02:03:46;94323.94;;;-5.82;67.42
45793;BME280;31495;42.740;22.908;2023-02-07T02:04:49;94355.16;;;-5.68;66.40
45793;BME280;31495;42.740;22.908;2023-02-07T02:05:50;94340.50;;;-5.62;66.85
45793;BME280;31495;42.740;22.908;2023-02-07T02:06:53;94306.13;;;-5.79;66.73
45793;BME280;31495;42.740;22.908;2023-02-07T02:07:54;94318.94;;;-5.67;67.57
45793;BME280;31495;42.740;22.908;2023-02-07T02:08:58;94339.75;;;-5.48;66.92
45793;BME280;31495;42.740;22.908;2023-02-07T02:09:59;94331.63;;;-5.53;67.20
45793;BME280;31495;42.740;22.908;2023-02-07T02:11:20;94347.44;;;-5.35;66.64
45793;BME280;31495;42.740;22.908;2023-02-07T02:14:01;94337.75;;;-5.27;66.18
45793;BME280;31495;42.740;22.908;2023-02-07T02:15:10;94347.84;;;-5.27;65.63
45793;BME280;31495;42.740;22.908;2023-02-07T02:16:29;94330.88;;;-5.55;64.50
45793;BME280;31495;42.740;22.908;2023-02-07T02:20:45;94347.97;;;-5.60;66.15
45793;BME280;31495;42.740;22.908;2023-02-07T02:22:32;94352.94;;;-5.75;65.53
45793;BME280;31495;42.740;22.908;2023-02-07T02:35:43;94333.16;;;-6.30;67.45
45793;BME280;31495;42.740;22.908;2023-02-07T02:38:27;94364.31;;;-6.15;67.77
45793;BME280;31495;42.740;22.908;2023-02-07T02:39:41;94347.66;;;-6.18;68.40
45793;BME280;31495;42.740;22.908;2023-02-07T02:43:08;94347.41;;;-6.29;67.84
45793;BME280;31495;42.740;22.908;2023-02-07T02:44:13;94357.41;;;-6.28;67.88
45793;BME280;31495;42.740;22.908;2023-02-07T02:45:19;94369.50;;;-6.18;67.90
45793;BME280;31495;42.740;22.908;2023-02-07T02:46:26;94345.78;;;-6.30;67.83
45793;BME280;31495;42.740;22.908;2023-02-07T02:47:29;94340.66;;;-6.29;67.62
45793;BME280;31495;42.740;22.908;2023-02-07T02:48:30;94353.13;;;-6.43;67.89
45793;BME280;31495;42.740;22.908;2023-02-07T02:49:33;94369.50;;;-6.34;68.20
45793;BME280;31495;42.740;22.908;2023-02-07T02:50:33;94348.66;;;-6.54;68.29
45793;BME280;31495;42.740;22.908;2023-02-07T02:51:33;94339.25;;;-6.68;68.56
45793;BME280;31495;42.740;22.908;2023-02-07T02:52:33;94350.34;;;-6.54;68.91
45793;BME280;31495;42.740;22.908;2023-02-07T02:53:32;94360.47;;;-6.38;68.81
45793;BME280;31495;42.740;22.908;2023-02-07T02:54:36;94349.50;;;-6.37;68.35
45793;BME280;31495;42.740;22.908;2023-02-07T02:58:38;94368.50;;;-6.48;68.69
45793;BME280;31495;42.740;22.908;2023-02-07T03:01:21;94351.88;;;-6.34;68.63
45793;BME280;31495;42.740;22.908;2023-02-07T03:02:50;94369.44;;;-6.17;68.04
45793;BME280;31495;42.740;22.908;2023-02-07T03:06:57;94374.88;;;-6.08;67.77
45793;BME280;31495;42.740;22.908;2023-02-07T03:11:06;94338.38;;;-6.33;67.14
45793;BME280;31495;42.740;22.908;2023-02-07T03:12:21;94354.47;;;-6.20;68.48
45793;BME280;31495;42.740;22.908;2023-02-07T03:16:23;94373.66;;;-5.85;68.06
45793;BME280;31495;42.740;22.908;2023-02-07T03:17:35;94348.56;;;-5.87;67.51
45793;BME280;31495;42.740;22.908;2023-02-07T03:22:00;94362.47;;;-5.80;67.21
45793;BME280;31495;42.740;22.908;2023-02-07T03:22:34;94353.31;;;-5.97;67.12
45793;BME280;31495;42.740;22.908;2023-02-07T03:23:35;94369.22;;;-5.96;66.79
45793;BME280;31495;42.740;22.908;2023-02-07T03:24:36;94370.94;;;-5.97;67.18
45793;BME280;31495;42.740;22.908;2023-02-07T03:25:38;94373.00;;;-5.89;67.17
45793;BME280;31495;42.740;22.908;2023-02-07T03:26:42;94367.09;;;-5.88;68.03
45793;BME280;31495;42.740;22.908;2023-02-07T03:27:44;94351.16;;;-5.88;67.85
45793;BME280;31495;42.740;22.908;2023-02-07T03:28:45;94366.44;;;-5.76;68.02
45793;BME280;31495;42.740;22.908;2023-02-07T03:29:48;94362.06;;;-5.72;68.27
45793;BME280;31495;42.740;22.908;2023-02-07T03:30:50;94330.47;;;-5.95;67.31
45793;BME280;31495;42.740;22.908;2023-02-07T03:31:55;94341.56;;;-5.82;67.69
45793;BME280;31495;42.740;22.908;2023-02-07T03:32:58;94346.94;;;-5.72;67.55
45793;BME280;31495;42.740;22.908;2023-02-07T03:34:08;94361.97;;;-5.70;66.78
45793;BME280;31495;42.740;22.908;2023-02-07T03:35:14;94346.84;;;-5.70;66.86
45793;BME280;31495;42.740;22.908;2023-02-07T03:36:20;94334.81;;;-5.81;66.81
45793;BME280;31495;42.740;22.908;2023-02-07T03:37:34;94369.38;;;-5.51;66.66
45793;BME280;31495;42.740;22.908;2023-02-07T03:38:36;94339.94;;;-5.67;67.30
45793;BME280;31495;42.740;22.908;2023-02-07T03:39:36;94335.78;;;-5.68;66.95
45793;BME280;31495;42.740;22.908;2023-02-07T03:40:39;94362.34;;;-5.46;66.67
45793;BME280;31495;42.740;22.908;2023-02-07T03:41:45;94326.09;;;-5.76;67.08
45793;BME280;31495;42.740;22.908;2023-02-07T03:42:54;94321.44;;;-5.67;66.80
45793;BME280;31495;42.740;22.908;2023-02-07T03:43:57;94344.38;;;-5.56;66.19
45793;BME280;31495;42.740;22.908;2023-02-07T03:44:57;94354.47;;;-5.56;65.71
45793;BME280;31495;42.740;22.908;2023-02-07T03:45:58;94314.97;;;-5.72;65.87
45793;BME280;31495;42.740;22.908;2023-02-07T03:46:58;94328.06;;;-5.65;65.81
45793;BME280;31495;42.740;22.908;2023-02-07T03:47:57;94350.25;;;-5.72;65.62
45793;BME280;31495;42.740;22.908;2023-02-07T03:48:57;94344.34;;;-6.02;66.54
45793;BME280;31495;42.740;22.908;2023-02-07T03:49:56;94364.72;;;-5.91;66.71
45793;BME280;31495;42.740;22.908;2023-02-07T03:50:56;94343.84;;;-5.93;66.80
45793;BME280;31495;42.740;22.908;2023-02-07T03:51:55;94317.88;;;-5.95;66.83
45793;BME280;31495;42.740;22.908;2023-02-07T03:52:55;94360.50;;;-5.91;67.16
45793;BME280;31495;42.740;22.908;2023-02-07T03:53:54;94351.72;;;-5.83;67.54
45793;BME280;31495;42.740;22.908;2023-02-07T03:54:53;94327.00;;;-5.93;68.05
45793;BME280;31495;42.740;22.908;2023-02-07T03:55:53;94349.47;;;-5.72;67.97
45793;BME280;31495;42.740;22.908;2023-02-07T03:56:52;94337.91;;;-5.76;68.29
45793;BME280;31495;42.740;22.908;2023-02-07T03:57:52;94339.03;;;-5.66;68.38
45793;BME280;31495;42.740;22.908;2023-02-07T03:58:52;94349.28;;;-5.53;67.64
45793;BME280;31495;42.740;22.908;2023-02-07T03:59:51;94355.63;;;-5.46;67.94
45793;BME280;31495;42.740;22.908;2023-02-07T04:00:51;94341.78;;;-5.55;67.29
45793;BME280;31495;42.740;22.908;2023-02-07T04:01:50;94354.31;;;-5.37;67.42
45793;BME280;31495;42.740;22.908;2023-02-07T04:02:50;94345.19;;;-5.40;67.84
45793;BME280;31495;42.740;22.908;2023-02-07T04:03:49;94342.41;;;-5.35;67.07
45793;BME280;31495;42.740;22.908;2023-02-07T04:04:48;94366.22;;;-5.25;66.65
45793;BME280;31495;42.740;22.908;2023-02-07T04:05:48;94335.78;;;-5.52;65.93
45793;BME280;31495;42.740;22.908;2023-02-07T04:06:47;94335.22;;;-5.57;66.41
45793;BME280;31495;42.740;22.908;2023-02-07T04:07:47;94341.94;;;-5.58;66.26
45793;BME280;31495;42.740;22.908;2023-02-07T04:08:47;94333.25;;;-5.68;66.52
45793;BME280;31495;42.740;22.908;2023-02-07T04:09:46;94340.19;;;-5.72;65.90
45793;BME280;31495;42.740;22.908;2023-02-07T04:10:56;94345.69;;;-5.65;66.16
45793;BME280;31495;42.740;22.908;2023-02-07T04:11:55;94280.78;;;-6.07;66.42
45793;BME280;31495;42.740;22.908;2023-02-07T04:12:55;94344.16;;;-5.67;66.28
45793;BME280;31495;42.740;22.908;2023-02-07T04:13:54;94350.19;;;-5.86;66.22
45793;BME280;31495;42.740;22.908;2023-02-07T04:14:55;94331.09;;;-5.90;66.46
45793;BME280;31495;42.740;22.908;2023-02-07T04:15:54;94319.19;;;-5.88;66.46
45793;BME280;31495;42.740;22.908;2023-02-07T04:16:54;94340.16;;;-5.87;66.85
45793;BME280;31495;42.740;22.908;2023-02-07T04:17:54;94362.28;;;-5.93;67.14
45793;BME280;31495;42.740;22.908;2023-02-07T04:18:53;94356.22;;;-6.04;67.54
45793;BME280;31495;42.740;22.908;2023-02-07T04:19:53;94346.28;;;-6.07;67.42
45793;BME280;31495;42.740;22.908;2023-02-07T04:21:02;94356.66;;;-6.30;68.00
45793;BME280;31495;42.740;22.908;2023-02-07T04:22:02;94346.91;;;-6.20;68.26
45793;BME280;31495;42.740;22.908;2023-02-07T04:23:01;94347.50;;;-5.99;68.18
45793;BME280;31495;42.740;22.908;2023-02-07T04:24:01;94351.41;;;-5.93;68.19
45793;BME280;31495;42.740;22.908;2023-02-07T04:25:00;94348.00;;;-6.08;67.89
45793;BME280;31495;42.740;22.908;2023-02-07T04:26:00;94342.13;;;-6.24;67.80
45793;BME280;31495;42.740;22.908;2023-02-07T04:27:00;94358.16;;;-6.10;67.97
45793;BME280;31495;42.740;22.908;2023-02-07T04:27:59;94343.53;;;-6.03;68.25
45793;BME280;31495;42.740;22.908;2023-02-07T04:28:59;94364.50;;;-5.86;68.04
45793;BME280;31495;42.740;22.908;2023-02-07T04:29:58;94347.75;;;-6.03;67.50
45793;BME280;31495;42.740;22.908;2023-02-07T04:30:58;94325.56;;;-6.13;67.83
45793;BME280;31495;42.740;22.908;2023-02-07T04:31:57;94340.56;;;-5.95;68.23
45793;BME280;31495;42.740;22.908;2023-02-07T04:32:56;94355.00;;;-5.97;67.83
45793;BME280;31495;42.740;22.908;2023-02-07T04:33:56;94355.88;;;-6.14;68.22
45793;BME280;31495;42.740;22.908;2023-02-07T04:34:55;94338.53;;;-6.36;68.38
45793;BME280;31495;42.740;22.908;2023-02-07T04:36:01;94348.91;;;-6.09;68.45
45793;BME280;31495;42.740;22.908;2023-02-07T04:37:01;94373.09;;;-5.91;68.54
45793;BME280;31495;42.740;22.908;2023-02-07T04:38:01;94348.72;;;-6.06;68.38
45793;BME280;31495;42.740;22.908;2023-02-07T04:39:01;94362.69;;;-5.84;67.79
45793;BME280;31495;42.740;22.908;2023-02-07T04:40:00;94371.91;;;-5.83;68.38
45793;BME280;31495;42.740;22.908;2023-02-07T04:41:01;94359.84;;;-6.26;67.98
45793;BME280;31495;42.740;22.908;2023-02-07T04:42:04;94359.94;;;-6.12;68.64
45793;BME280;31495;42.740;22.908;2023-02-07T04:43:05;94357.81;;;-6.03;68.80
45793;BME280;31495;42.740;22.908;2023-02-07T04:44:05;94352.28;;;-5.94;68.91
45793;BME280;31495;42.740;22.908;2023-02-07T04:45:04;94380.53;;;-5.72;68.66
45793;BME280;31495;42.740;22.908;2023-02-07T04:46:05;94382.47;;;-5.77;68.02
45793;BME280;31495;42.740;22.908;2023-02-07T04:47:05;94375.63;;;-5.75;67.77
45793;BME280;31495;42.740;22.908;2023-02-07T04:48:04;94340.91;;;-5.85;68.48
45793;BME280;31495;42.740;22.908;2023-02-07T04:49:04;94379.59;;;-5.55;68.87
45793;BME280;31495;42.740;22.908;2023-02-07T04:50:04;94367.84;;;-5.54;68.61
45793;BME280;31495;42.740;22.908;2023-02-07T04:51:05;94366.91;;;-5.53;68.42
45793;BME280;31495;42.740;22.908;2023-02-07T04:52:04;94357.81;;;-5.56;66.80
45793;BME280;31495;42.740;22.908;2023-02-07T04:53:04;94364.06;;;-5.47;67.23
45793;BME280;31495;42.740;22.908;2023-02-07T04:54:03;94380.72;;;-5.28;67.09
45793;BME280;31495;42.740;22.908;2023-02-07T04:55:03;94355.88;;;-5.50;66.39
45793;BME280;31495;42.740;22.908;2023-02-07T04:56:03;94375.84;;;-5.31;66.72
45793;BME280;31495;42.740;22.908;2023-02-07T04:57:03;94369.19;;;-5.48;66.65
45793;BME280;31495;42.740;22.908;2023-02-07T04:58:04;94338.47;;;-5.87;67.19
45793;BME280;31495;42.740;22.908;2023-02-07T04:59:03;94360.03;;;-5.81;67.07
45793;BME280;31495;42.740;22.908;2023-02-07T05:00:03;94360.25;;;-6.02;67.62
45793;BME280;31495;42.740;22.908;2023-02-07T05:01:02;94303.09;;;-6.49;68.01
45793;BME280;31495;42.740;22.908;2023-02-07T05:02:02;94382.53;;;-5.94;69.09
45793;BME280;31495;42.740;22.908;2023-02-07T05:03:02;94384.44;;;-5.98;68.64
45793;BME280;31495;42.740;22.908;2023-02-07T05:04:01;94377.03;;;-6.01;68.74
45793;BME280;31495;42.740;22.908;2023-02-07T05:05:01;94384.25;;;-6.11;68.97
45793;BME280;31495;42.740;22.908;2023-02-07T05:06:00;94366.50;;;-6.25;69.28
45793;BME280;31495;42.740;22.908;2023-02-07T05:06:59;94396.47;;;-6.03;69.65
45793;BME280;31495;42.740;22.908;2023-02-07T05:07:59;94377.81;;;-6.16;69.33
45793;BME280;31495;42.740;22.908;2023-02-07T05:08:58;94385.13;;;-5.96;69.57
45793;BME280;31495;42.740;22.908;2023-02-07T05:09:58;94391.22;;;-5.84;69.20
45793;BME280;31495;42.740;22.908;2023-02-07T05:10:57;94369.31;;;-5.98;69.00
45793;BME280;31495;42.740;22.908;2023-02-07T05:11:57;94366.22;;;-6.03;69.09
45793;BME280;31495;42.740;22.908;2023-02-07T05:12:56;94389.13;;;-5.92;69.24
45793;BME280;31495;42.740;22.908;2023-02-07T05:13:55;94377.03;;;-6.01;68.75
45793;BME280;31495;42.740;22.908;2023-02-07T05:14:55;94398.31;;;-5.75;67.97
45793;BME280;31495;42.740;22.908;2023-02-07T05:15:54;94375.63;;;-5.75;67.77
45793;BME280;31495;42.740;22.908;2023-02-07T05:16:54;94391.16;;;-5.66;67.93
45793;BME280;31495;42.740;22.908;2023-02-07T05:17:53;94387.09;;;-5.69;67.70
45793;BME280;31495;42.740;22.908;2023-02-07T05:18:55;94401.19;;;-5.49;67.40
45793;BME280;31495;42.740;22.908;2023-02-07T05:19:54;94390.44;;;-5.52;67.48
45793;BME280;31495;42.740;22.908;2023-02-07T05:20:54;94391.50;;;-5.57;67.70
45793;BME280;31495;42.740;22.908;2023-02-07T05:21:53;94378.41;;;-5.63;68.30
45793;BME280;31495;42.740;22.908;2023-02-07T05:22:53;94363.09;;;-5.76;69.06
45793;BME280;31495;42.740;22.908;2023-02-07T05:23:52;94396.06;;;-5.47;68.83
45793;BME280;31495;42.740;22.908;2023-02-07T05:24:52;94393.38;;;-5.44;68.87
45793;BME280;31495;42.740;22.908;2023-02-07T05:25:51;94392.94;;;-5.37;68.30
45793;BME280;31495;42.740;22.908;2023-02-07T05:26:51;94394.41;;;-5.32;67.70
45793;BME280;31495;42.740;22.908;2023-02-07T05:27:50;94404.06;;;-5.25;67.39
45793;BME280;31495;42.740;22.908;2023-02-07T05:28:50;94394.09;;;-5.26;67.65
45793;BME280;31495;42.740;22.908;2023-02-07T05:29:49;94408.22;;;-5.08;67.73
45793;BME280;31495;42.740;22.908;2023-02-07T05:30:52;94408.63;;;-5.00;68.01
45793;BME280;31495;42.740;22.908;2023-02-07T05:31:53;94406.41;;;-5.06;67.73
45793;BME280;31495;42.740;22.908;2023-02-07T05:33:11;94420.69;;;-5.05;67.22
45793;BME280;31495;42.740;22.908;2023-02-07T05:34:10;94406.81;;;-5.13;67.85
45793;BME280;31495;42.740;22.908;2023-02-07T05:35:10;94415.78;;;-5.08;68.12
45793;BME280;31495;42.740;22.908;2023-02-07T05:36:10;94421.41;;;-5.03;67.90
45793;BME280;31495;42.740;22.908;2023-02-07T05:37:09;94416.34;;;-5.03;68.51
45793;BME280;31495;42.740;22.908;2023-02-07T05:38:11;94407.91;;;-5.02;68.07
45793;BME280;31495;42.740;22.908;2023-02-07T05:39:11;94408.63;;;-5.00;67.73
45793;BME280;31495;42.740;22.908;2023-02-07T05:40:10;94400.22;;;-5.00;67.89
45793;BME280;31495;42.740;22.908;2023-02-07T05:41:11;94416.03;;;-4.82;67.90
45793;BME280;31495;42.740;22.908;2023-02-07T05:42:11;94431.47;;;-4.87;67.14
45793;BME280;31495;42.740;22.908;2023-02-07T05:43:11;94420.72;;;-4.90;67.16
45793;BME280;31495;42.740;22.908;2023-02-07T05:44:11;94423.81;;;-4.85;67.33
45793;BME280;31495;42.740;22.908;2023-02-07T05:45:10;94422.19;;;-4.86;67.21
45793;BME280;31495;42.740;22.908;2023-02-07T05:46:09;94423.72;;;-4.84;67.35
45793;BME280;31495;42.740;22.908;2023-02-07T05:47:09;94418.50;;;-4.81;67.60
45793;BME280;31495;42.740;22.908;2023-02-07T05:48:08;94407.28;;;-4.91;67.86
45793;BME280;31495;42.740;22.908;2023-02-07T05:49:07;94394.81;;;-4.94;67.42
45793;BME280;31495;42.740;22.908;2023-02-07T05:50:07;94391.28;;;-5.06;67.94
45793;BME280;31495;42.740;22.908;2023-02-07T05:51:07;94417.59;;;-4.80;67.98
45793;BME280;31495;42.740;22.908;2023-02-07T05:52:06;94425.47;;;-4.70;67.39
45793;BME280;31495;42.740;22.908;2023-02-07T05:53:07;94395.59;;;-4.77;67.51
45793;BME280;31495;42.740;22.908;2023-02-07T05:54:07;94420.47;;;-4.55;67.08
45793;BME280;31495;42.740;22.908;2023-02-07T05:55:07;94424.44;;;-4.51;66.52
45793;BME280;31495;42.740;22.908;2023-02-07T05:56:08;94425.84;;;-4.62;67.02
45793;BME280;31495;42.740;22.908;2023-02-07T05:57:07;94413.34;;;-4.79;67.24
45793;BME280;31495;42.740;22.908;2023-02-07T05:58:07;94419.53;;;-4.69;67.59
45793;BME280;31495;42.740;22.908;2023-02-07T05:59:06;94436.59;;;-4.58;67.20